Calgary, Canada
Current Conditions -  °F | °C
As of 9:00 AM on Friday 31 Oct 2014 (Local Time) from CYYC Reporting Station
Broken Clouds Broken Clouds  
Wind Chill:   Ceiling: 18000
Heat Index:   Visibility: 40mi
Dew Point:   Wind: 3mph
Humidity: 70%   Direction: 230°SW
Pressure: 29.62"   Gusts: NA
Location:  51.05°N, 114.06°W
Report Text: CYYC 311500Z 23003KT 40SM SCT130 BKN180 06/01 A2962 RMK AC3AC4 SLP060 DENSITY ALT 3700FT
Loading
Personal Weather Stations






























Interactive Weather Map New forecast layout! Learn more

10-Day Weather Forecast

Advertisements
Track Severe Weather on mobile